sensor_id;sensor_type;location;lat;lon;timestamp;pressure;altitude;pressure_sealevel;temperature;humidity
74881;BME280;63427;49.654;6.596;2022-12-24T00:01:11;99196.14;;;12.44;43.97
74881;BME280;63427;49.654;6.596;2022-12-24T00:03:37;99209.45;;;12.57;44.11
74881;BME280;63427;49.654;6.596;2022-12-24T00:06:03;99210.96;;;12.28;44.43
74881;BME280;63427;49.654;6.596;2022-12-24T00:08:28;99218.42;;;12.55;43.88
74881;BME280;63427;49.654;6.596;2022-12-24T00:10:53;99227.01;;;12.35;43.81
74881;BME280;63427;49.654;6.596;2022-12-24T00:13:19;99220.15;;;12.75;43.59
74881;BME280;63427;49.654;6.596;2022-12-24T00:15:45;99220.46;;;12.30;43.95
74881;BME280;63427;49.654;6.596;2022-12-24T00:18:10;99222.25;;;12.77;43.60
74881;BME280;63427;49.654;6.596;2022-12-24T00:20:35;99225.52;;;12.51;43.76
74881;BME280;63427;49.654;6.596;2022-12-24T00:23:01;99219.31;;;12.51;43.90
74881;BME280;63427;49.654;6.596;2022-12-24T00:25:26;99220.60;;;12.25;44.29
74881;BME280;63427;49.654;6.596;2022-12-24T00:27:51;99220.79;;;12.27;45.01
74881;BME280;63427;49.654;6.596;2022-12-24T00:30:17;99211.24;;;12.46;45.08
74881;BME280;63427;49.654;6.596;2022-12-24T00:32:42;99208.71;;;12.40;44.64
74881;BME280;63427;49.654;6.596;2022-12-24T00:35:08;99207.54;;;11.91;44.94
74881;BME280;63427;49.654;6.596;2022-12-24T00:37:33;99200.80;;;12.11;44.48
74881;BME280;63427;49.654;6.596;2022-12-24T00:39:59;99199.65;;;12.45;43.63
74881;BME280;63427;49.654;6.596;2022-12-24T00:42:24;99204.91;;;12.43;43.49
74881;BME280;63427;49.654;6.596;2022-12-24T00:44:50;99197.26;;;12.53;43.25
74881;BME280;63427;49.654;6.596;2022-12-24T00:47:15;99197.35;;;12.86;42.70
74881;BME280;63427;49.654;6.596;2022-12-24T00:49:41;99203.94;;;12.73;42.90
74881;BME280;63427;49.654;6.596;2022-12-24T00:52:06;99207.69;;;12.97;42.31
74881;BME280;63427;49.654;6.596;2022-12-24T00:54:32;99211.60;;;12.97;42.34
74881;BME280;63427;49.654;6.596;2022-12-24T00:56:57;99208.73;;;13.12;42.13
74881;BME280;63427;49.654;6.596;2022-12-24T00:59:22;99215.59;;;12.90;42.65
74881;BME280;63427;49.654;6.596;2022-12-24T01:01:48;99214.90;;;13.16;42.30
74881;BME280;63427;49.654;6.596;2022-12-24T01:04:13;99229.43;;;13.15;42.73
74881;BME280;63427;49.654;6.596;2022-12-24T01:06:38;99231.91;;;12.88;42.86
74881;BME280;63427;49.654;6.596;2022-12-24T01:09:04;99239.20;;;12.74;43.07
74881;BME280;63427;49.654;6.596;2022-12-24T01:11:29;99236.31;;;12.85;43.07
74881;BME280;63427;49.654;6.596;2022-12-24T01:13:54;99243.98;;;12.75;43.20
74881;BME280;63427;49.654;6.596;2022-12-24T01:16:20;99241.82;;;12.73;43.28
74881;BME280;63427;49.654;6.596;2022-12-24T01:18:46;99251.10;;;12.64;43.32
74881;BME280;63427;49.654;6.596;2022-12-24T01:21:11;99252.71;;;12.33;43.97
74881;BME280;63427;49.654;6.596;2022-12-24T01:23:36;99248.84;;;12.59;43.56
74881;BME280;63427;49.654;6.596;2022-12-24T01:26:03;99249.61;;;12.67;43.37
74881;BME280;63427;49.654;6.596;2022-12-24T01:28:27;99248.69;;;11.75;45.34
74881;BME280;63427;49.654;6.596;2022-12-24T01:30:53;99256.21;;;12.20;45.38
74881;BME280;63427;49.654;6.596;2022-12-24T01:33:18;99252.62;;;12.19;45.08
74881;BME280;63427;49.654;6.596;2022-12-24T01:35:43;99256.16;;;12.11;45.13
74881;BME280;63427;49.654;6.596;2022-12-24T01:38:10;99262.78;;;12.28;45.10
74881;BME280;63427;49.654;6.596;2022-12-24T01:40:34;99261.41;;;12.34;44.38
74881;BME280;63427;49.654;6.596;2022-12-24T01:43:00;99262.45;;;12.00;45.41
74881;BME280;63427;49.654;6.596;2022-12-24T01:45:40;99258.70;;;12.46;44.79
74881;BME280;63427;49.654;6.596;2022-12-24T01:47:51;99254.55;;;12.62;44.04
74881;BME280;63427;49.654;6.596;2022-12-24T01:50:16;99252.42;;;12.69;43.92
74881;BME280;63427;49.654;6.596;2022-12-24T01:52:43;99259.45;;;12.82;43.65
74881;BME280;63427;49.654;6.596;2022-12-24T01:55:11;99256.58;;;13.05;43.29
74881;BME280;63427;49.654;6.596;2022-12-24T01:57:36;99272.30;;;13.12;43.72
74881;BME280;63427;49.654;6.596;2022-12-24T02:00:03;99269.27;;;12.80;43.89
74881;BME280;63427;49.654;6.596;2022-12-24T02:02:24;99263.28;;;12.53;44.62
74881;BME280;63427;49.654;6.596;2022-12-24T02:04:53;99267.47;;;13.06;44.28
74881;BME280;63427;49.654;6.596;2022-12-24T02:07:15;99272.69;;;12.90;44.07
74881;BME280;63427;49.654;6.596;2022-12-24T02:09:40;99288.32;;;12.88;44.28
74881;BME280;63427;49.654;6.596;2022-12-24T02:12:06;99295.87;;;12.99;44.22
74881;BME280;63427;49.654;6.596;2022-12-24T02:14:31;99292.87;;;12.87;44.60
74881;BME280;63427;49.654;6.596;2022-12-24T02:17:01;99289.74;;;12.87;44.91
74881;BME280;63427;49.654;6.596;2022-12-24T02:21:51;99296.76;;;12.95;45.14
74881;BME280;63427;49.654;6.596;2022-12-24T02:24:26;99305.46;;;12.65;45.80
74881;BME280;63427;49.654;6.596;2022-12-24T02:26:52;99303.72;;;12.91;45.56
74881;BME280;63427;49.654;6.596;2022-12-24T02:29:18;99297.79;;;13.05;45.11
74881;BME280;63427;49.654;6.596;2022-12-24T02:31:33;99298.20;;;12.91;45.34
74881;BME280;63427;49.654;6.596;2022-12-24T02:33:58;99299.71;;;13.09;45.22
74881;BME280;63427;49.654;6.596;2022-12-24T02:36:23;99302.43;;;13.23;44.98
74881;BME280;63427;49.654;6.596;2022-12-24T02:38:48;99311.10;;;13.15;45.17
74881;BME280;63427;49.654;6.596;2022-12-24T02:41:15;99305.28;;;13.28;45.00
74881;BME280;63427;49.654;6.596;2022-12-24T02:43:39;99303.11;;;13.64;44.44
74881;BME280;63427;49.654;6.596;2022-12-24T02:46:06;99326.39;;;13.40;44.57
74881;BME280;63427;49.654;6.596;2022-12-24T02:48:29;99335.16;;;13.50;44.81
74881;BME280;63427;49.654;6.596;2022-12-24T02:50:55;99344.71;;;13.15;45.41
74881;BME280;63427;49.654;6.596;2022-12-24T02:53:18;99350.51;;;13.14;45.37
74881;BME280;63427;49.654;6.596;2022-12-24T02:55:48;99339.21;;;12.57;45.69
74881;BME280;63427;49.654;6.596;2022-12-24T02:58:20;99353.52;;;13.48;44.73
74881;BME280;63427;49.654;6.596;2022-12-24T03:00:43;99355.48;;;13.15;44.28
74881;BME280;63427;49.654;6.596;2022-12-24T03:03:12;99345.54;;;13.29;43.99
74881;BME280;63427;49.654;6.596;2022-12-24T03:05:29;99348.30;;;13.33;44.22
74881;BME280;63427;49.654;6.596;2022-12-24T03:07:57;99342.36;;;13.08;42.91
74881;BME280;63427;49.654;6.596;2022-12-24T03:10:20;99340.52;;;13.08;43.22
74881;BME280;63427;49.654;6.596;2022-12-24T03:12:45;99339.38;;;12.99;43.43
74881;BME280;63427;49.654;6.596;2022-12-24T03:15:10;99349.05;;;13.45;43.18
74881;BME280;63427;49.654;6.596;2022-12-24T03:17:36;99357.46;;;13.02;44.10
74881;BME280;63427;49.654;6.596;2022-12-24T03:19:58;99349.01;;;12.98;44.31
74881;BME280;63427;49.654;6.596;2022-12-24T03:22:24;99358.84;;;13.06;44.22
74881;BME280;63427;49.654;6.596;2022-12-24T03:24:50;99363.14;;;13.12;44.14
74881;BME280;63427;49.654;6.596;2022-12-24T03:27:15;99358.71;;;12.75;44.37
74881;BME280;63427;49.654;6.596;2022-12-24T03:29:41;99356.04;;;12.21;45.98
74881;BME280;63427;49.654;6.596;2022-12-24T03:32:07;99362.31;;;12.50;45.12
74881;BME280;63427;49.654;6.596;2022-12-24T03:34:32;99366.84;;;12.69;44.82
74881;BME280;63427;49.654;6.596;2022-12-24T03:36:57;99376.33;;;12.52;44.93
74881;BME280;63427;49.654;6.596;2022-12-24T03:39:23;99378.71;;;12.75;44.58
74881;BME280;63427;49.654;6.596;2022-12-24T03:41:48;99382.91;;;12.71;44.52
74881;BME280;63427;49.654;6.596;2022-12-24T03:44:13;99380.97;;;12.79;44.40
74881;BME280;63427;49.654;6.596;2022-12-24T03:46:39;99369.33;;;13.00;44.14
74881;BME280;63427;49.654;6.596;2022-12-24T03:49:05;99366.98;;;13.02;44.21
74881;BME280;63427;49.654;6.596;2022-12-24T03:51:30;99374.48;;;13.01;43.96
74881;BME280;63427;49.654;6.596;2022-12-24T03:53:56;99380.30;;;12.98;43.70
74881;BME280;63427;49.654;6.596;2022-12-24T03:56:21;99369.97;;;13.24;43.40
74881;BME280;63427;49.654;6.596;2022-12-24T03:58:46;99373.81;;;12.98;44.06
74881;BME280;63427;49.654;6.596;2022-12-24T04:01:12;99376.84;;;12.87;44.45
74881;BME280;63427;49.654;6.596;2022-12-24T04:03:37;99373.95;;;12.67;44.78
74881;BME280;63427;49.654;6.596;2022-12-24T04:06:04;99365.67;;;12.00;45.77
74881;BME280;63427;49.654;6.596;2022-12-24T04:08:28;99364.60;;;12.52;45.06
74881;BME280;63427;49.654;6.596;2022-12-24T04:10:53;99367.20;;;12.46;45.15
74881;BME280;63427;49.654;6.596;2022-12-24T04:13:19;99366.75;;;12.58;44.78
74881;BME280;63427;49.654;6.596;2022-12-24T04:15:44;99366.20;;;12.61;44.75
74881;BME280;63427;49.654;6.596;2022-12-24T04:18:10;99366.54;;;12.84;44.38
74881;BME280;63427;49.654;6.596;2022-12-24T04:20:35;99370.82;;;12.69;44.67
74881;BME280;63427;49.654;6.596;2022-12-24T04:23:00;99365.00;;;13.01;43.89
74881;BME280;63427;49.654;6.596;2022-12-24T04:25:26;99365.95;;;13.06;43.69
74881;BME280;63427;49.654;6.596;2022-12-24T04:27:51;99368.07;;;13.06;43.75
74881;BME280;63427;49.654;6.596;2022-12-24T04:30:17;99367.63;;;12.95;43.83
74881;BME280;63427;49.654;6.596;2022-12-24T04:32:42;99368.86;;;12.24;45.03
74881;BME280;63427;49.654;6.596;2022-12-24T04:35:08;99364.39;;;12.56;44.70
74881;BME280;63427;49.654;6.596;2022-12-24T04:37:34;99363.07;;;12.24;46.36
74881;BME280;63427;49.654;6.596;2022-12-24T04:39:58;99363.28;;;12.28;46.18
74881;BME280;63427;49.654;6.596;2022-12-24T04:42:24;99377.32;;;12.14;45.89
74881;BME280;63427;49.654;6.596;2022-12-24T04:44:49;99379.02;;;12.30;45.36
74881;BME280;63427;49.654;6.596;2022-12-24T04:47:15;99379.35;;;12.64;45.14
74881;BME280;63427;49.654;6.596;2022-12-24T04:49:40;99372.98;;;12.21;45.26
74881;BME280;63427;49.654;6.596;2022-12-24T04:52:05;99373.36;;;12.37;45.08
74881;BME280;63427;49.654;6.596;2022-12-24T04:54:30;99387.22;;;12.28;45.36
74881;BME280;63427;49.654;6.596;2022-12-24T04:56:56;99381.32;;;12.68;44.71
74881;BME280;63427;49.654;6.596;2022-12-24T04:59:21;99390.33;;;12.67;45.10
74881;BME280;63427;49.654;6.596;2022-12-24T05:01:47;99382.98;;;12.54;44.52
74881;BME280;63427;49.654;6.596;2022-12-24T05:04:12;99389.18;;;12.78;44.13
74881;BME280;63427;49.654;6.596;2022-12-24T05:06:37;99399.68;;;13.23;43.69
74881;BME280;63427;49.654;6.596;2022-12-24T05:09:03;99390.44;;;12.61;44.68
74881;BME280;63427;49.654;6.596;2022-12-24T05:11:29;99407.44;;;13.12;43.91
74881;BME280;63427;49.654;6.596;2022-12-24T05:13:54;99402.25;;;13.34;43.68
74881;BME280;63427;49.654;6.596;2022-12-24T05:16:21;99405.76;;;13.07;43.63
74881;BME280;63427;49.654;6.596;2022-12-24T05:18:45;99398.17;;;13.16;43.53
74881;BME280;63427;49.654;6.596;2022-12-24T05:21:14;99401.93;;;13.51;43.38
74881;BME280;63427;49.654;6.596;2022-12-24T05:23:37;99405.08;;;13.06;43.80
74881;BME280;63427;49.654;6.596;2022-12-24T05:26:02;99404.96;;;12.63;44.39
74881;BME280;63427;49.654;6.596;2022-12-24T05:28:27;99407.76;;;12.97;44.37
74881;BME280;63427;49.654;6.596;2022-12-24T05:30:53;99402.12;;;12.95;44.19
74881;BME280;63427;49.654;6.596;2022-12-24T05:33:18;99395.96;;;12.87;44.40
74881;BME280;63427;49.654;6.596;2022-12-24T05:35:44;99393.68;;;13.01;44.09
74881;BME280;63427;49.654;6.596;2022-12-24T05:38:09;99403.30;;;12.50;45.09
74881;BME280;63427;49.654;6.596;2022-12-24T05:40:35;99398.55;;;12.55;44.97
74881;BME280;63427;49.654;6.596;2022-12-24T05:43:00;99402.96;;;12.74;44.72
74881;BME280;63427;49.654;6.596;2022-12-24T05:45:26;99403.00;;;12.35;45.23
74881;BME280;63427;49.654;6.596;2022-12-24T05:47:51;99412.99;;;12.52;45.81
74881;BME280;63427;49.654;6.596;2022-12-24T05:50:17;99416.96;;;12.90;45.33
74881;BME280;63427;49.654;6.596;2022-12-24T05:52:42;99422.78;;;12.80;44.61
74881;BME280;63427;49.654;6.596;2022-12-24T05:55:08;99428.77;;;12.90;44.41
74881;BME280;63427;49.654;6.596;2022-12-24T05:57:33;99431.63;;;12.87;44.58
74881;BME280;63427;49.654;6.596;2022-12-24T05:59:58;99429.17;;;12.81;45.10
74881;BME280;63427;49.654;6.596;2022-12-24T06:02:24;99430.86;;;12.77;44.71
74881;BME280;63427;49.654;6.596;2022-12-24T06:04:49;99430.60;;;12.41;45.62
74881;BME280;63427;49.654;6.596;2022-12-24T06:07:14;99428.90;;;12.60;45.19
74881;BME280;63427;49.654;6.596;2022-12-24T06:09:39;99429.48;;;13.07;44.47
74881;BME280;63427;49.654;6.596;2022-12-24T06:12:05;99424.97;;;12.90;44.70
74881;BME280;63427;49.654;6.596;2022-12-24T06:14:30;99423.53;;;13.07;44.61
74881;BME280;63427;49.654;6.596;2022-12-24T06:16:55;99413.74;;;13.18;44.15
74881;BME280;63427;49.654;6.596;2022-12-24T06:19:20;99429.79;;;13.15;44.23
74881;BME280;63427;49.654;6.596;2022-12-24T06:21:46;99432.73;;;13.06;44.37
74881;BME280;63427;49.654;6.596;2022-12-24T06:24:11;99428.37;;;12.77;45.40
74881;BME280;63427;49.654;6.596;2022-12-24T06:26:37;99435.62;;;12.73;44.91
74881;BME280;63427;49.654;6.596;2022-12-24T06:29:02;99434.47;;;12.79;44.79
74881;BME280;63427;49.654;6.596;2022-12-24T06:31:28;99439.34;;;12.86;44.77
74881;BME280;63427;49.654;6.596;2022-12-24T06:33:53;99445.16;;;12.93;44.61
74881;BME280;63427;49.654;6.596;2022-12-24T06:36:21;99457.35;;;12.55;45.73
74881;BME280;63427;49.654;6.596;2022-12-24T06:38:46;99452.96;;;12.83;45.27
74881;BME280;63427;49.654;6.596;2022-12-24T06:41:10;99458.84;;;12.95;44.52
74881;BME280;63427;49.654;6.596;2022-12-24T06:43:36;99454.33;;;12.84;44.71
74881;BME280;63427;49.654;6.596;2022-12-24T06:46:02;99458.30;;;12.82;44.89
74881;BME280;63427;49.654;6.596;2022-12-24T06:48:26;99457.85;;;12.89;44.64
74881;BME280;63427;49.654;6.596;2022-12-24T06:50:53;99460.90;;;12.91;44.57
74881;BME280;63427;49.654;6.596;2022-12-24T06:53:18;99453.14;;;12.62;44.84
74881;BME280;63427;49.654;6.596;2022-12-24T06:55:43;99457.32;;;12.62;45.10
74881;BME280;63427;49.654;6.596;2022-12-24T06:58:09;99453.78;;;12.75;44.82
74881;BME280;63427;49.654;6.596;2022-12-24T07:00:34;99452.41;;;12.75;44.95
74881;BME280;63427;49.654;6.596;2022-12-24T07:03:00;99459.93;;;12.58;45.04
74881;BME280;63427;49.654;6.596;2022-12-24T07:05:26;99464.83;;;12.61;45.09
74881;BME280;63427;49.654;6.596;2022-12-24T07:07:51;99462.59;;;12.29;45.35
74881;BME280;63427;49.654;6.596;2022-12-24T07:10:17;99459.91;;;12.89;44.72
74881;BME280;63427;49.654;6.596;2022-12-24T07:12:42;99461.27;;;12.68;44.61
74881;BME280;63427;49.654;6.596;2022-12-24T07:15:07;99468.74;;;12.48;45.56
74881;BME280;63427;49.654;6.596;2022-12-24T07:17:32;99467.51;;;12.83;45.04
74881;BME280;63427;49.654;6.596;2022-12-24T07:19:57;99473.30;;;12.64;45.52
74881;BME280;63427;49.654;6.596;2022-12-24T07:22:23;99472.06;;;12.98;45.00
74881;BME280;63427;49.654;6.596;2022-12-24T07:24:48;99469.82;;;13.08;44.49
74881;BME280;63427;49.654;6.596;2022-12-24T07:27:14;99473.12;;;13.09;44.72
74881;BME280;63427;49.654;6.596;2022-12-24T07:29:39;99478.59;;;13.00;45.61
74881;BME280;63427;49.654;6.596;2022-12-24T07:32:04;99481.49;;;12.80;45.51
74881;BME280;63427;49.654;6.596;2022-12-24T07:34:29;99479.30;;;12.16;46.79
74881;BME280;63427;49.654;6.596;2022-12-24T07:36:55;99477.18;;;12.13;46.85
74881;BME280;63427;49.654;6.596;2022-12-24T07:39:20;99481.12;;;12.76;46.31
74881;BME280;63427;49.654;6.596;2022-12-24T07:41:45;99490.12;;;12.69;46.64
74881;BME280;63427;49.654;6.596;2022-12-24T07:44:11;99493.72;;;12.38;46.76
74881;BME280;63427;49.654;6.596;2022-12-24T07:46:36;99499.02;;;12.68;46.21
74881;BME280;63427;49.654;6.596;2022-12-24T07:49:02;99504.75;;;12.48;46.43
74881;BME280;63427;49.654;6.596;2022-12-24T07:51:27;99512.85;;;12.60;46.31
74881;BME280;63427;49.654;6.596;2022-12-24T07:53:53;99513.46;;;12.52;46.67
74881;BME280;63427;49.654;6.596;2022-12-24T07:56:18;99513.87;;;13.01;45.80
74881;BME280;63427;49.654;6.596;2022-12-24T07:58:44;99504.95;;;13.16;45.70
74881;BME280;63427;49.654;6.596;2022-12-24T08:01:09;99504.80;;;13.30;45.41
74881;BME280;63427;49.654;6.596;2022-12-24T08:03:35;99503.23;;;13.28;45.29
74881;BME280;63427;49.654;6.596;2022-12-24T08:06:00;99503.82;;;13.31;45.04
74881;BME280;63427;49.654;6.596;2022-12-24T08:08:26;99509.67;;;13.51;44.83
74881;BME280;63427;49.654;6.596;2022-12-24T08:10:51;99513.81;;;13.56;44.90
74881;BME280;63427;49.654;6.596;2022-12-24T08:13:17;99515.57;;;13.18;44.77
74881;BME280;63427;49.654;6.596;2022-12-24T08:15:43;99520.17;;;13.41;44.88
74881;BME280;63427;49.654;6.596;2022-12-24T08:18:08;99529.70;;;13.21;44.69
74881;BME280;63427;49.654;6.596;2022-12-24T08:20:33;99529.58;;;13.47;44.64
74881;BME280;63427;49.654;6.596;2022-12-24T08:22:59;99531.39;;;13.37;44.68
74881;BME280;63427;49.654;6.596;2022-12-24T08:25:24;99537.52;;;13.61;44.30
74881;BME280;63427;49.654;6.596;2022-12-24T08:27:50;99538.25;;;13.04;44.85
74881;BME280;63427;49.654;6.596;2022-12-24T08:30:15;99540.92;;;13.26;44.74
74881;BME280;63427;49.654;6.596;2022-12-24T08:32:41;99546.91;;;13.32;44.61
74881;BME280;63427;49.654;6.596;2022-12-24T08:35:07;99536.75;;;13.45;44.60
74881;BME280;63427;49.654;6.596;2022-12-24T08:37:31;99536.56;;;13.26;44.33
74881;BME280;63427;49.654;6.596;2022-12-24T08:39:57;99544.31;;;13.54;44.05
74881;BME280;63427;49.654;6.596;2022-12-24T08:42:22;99544.31;;;13.61;44.30
74881;BME280;63427;49.654;6.596;2022-12-24T08:44:47;99537.68;;;13.08;44.36
74881;BME280;63427;49.654;6.596;2022-12-24T08:47:12;99542.50;;;13.28;44.32
74881;BME280;63427;49.654;6.596;2022-12-24T08:49:37;99549.74;;;13.38;44.32
74881;BME280;63427;49.654;6.596;2022-12-24T08:52:03;99557.92;;;13.45;44.17
74881;BME280;63427;49.654;6.596;2022-12-24T08:54:28;99552.22;;;13.90;43.89
74881;BME280;63427;49.654;6.596;2022-12-24T08:56:53;99557.08;;;13.57;43.90
74881;BME280;63427;49.654;6.596;2022-12-24T08:59:19;99560.70;;;13.66;44.03
74881;BME280;63427;49.654;6.596;2022-12-24T09:01:45;99557.78;;;13.64;44.16
74881;BME280;63427;49.654;6.596;2022-12-24T09:04:10;99559.82;;;13.82;44.08
74881;BME280;63427;49.654;6.596;2022-12-24T09:06:36;99563.64;;;13.80;44.51
74881;BME280;63427;49.654;6.596;2022-12-24T09:09:01;99565.45;;;13.95;44.19
74881;BME280;63427;49.654;6.596;2022-12-24T09:11:27;99565.11;;;13.54;44.95
74881;BME280;63427;49.654;6.596;2022-12-24T09:13:51;99577.11;;;13.11;45.42
74881;BME280;63427;49.654;6.596;2022-12-24T09:16:17;99583.59;;;13.88;45.06
74881;BME280;63427;49.654;6.596;2022-12-24T09:18:43;99585.75;;;13.60;44.82
74881;BME280;63427;49.654;6.596;2022-12-24T09:21:10;99584.44;;;13.50;45.40
74881;BME280;63427;49.654;6.596;2022-12-24T09:23:35;99585.65;;;13.40;45.44
74881;BME280;63427;49.654;6.596;2022-12-24T09:25:58;99584.22;;;13.51;45.16
74881;BME280;63427;49.654;6.596;2022-12-24T09:28:24;99585.22;;;13.77;44.61
74881;BME280;63427;49.654;6.596;2022-12-24T09:30:56;99587.99;;;13.66;44.63
74881;BME280;63427;49.654;6.596;2022-12-24T09:33:14;99586.82;;;13.76;44.63
74881;BME280;63427;49.654;6.596;2022-12-24T09:35:40;99591.21;;;13.82;44.30
74881;BME280;63427;49.654;6.596;2022-12-24T09:38:05;99595.76;;;13.64;44.82
74881;BME280;63427;49.654;6.596;2022-12-24T09:40:36;99599.11;;;13.79;44.59
74881;BME280;63427;49.654;6.596;2022-12-24T09:42:56;99599.64;;;13.36;44.30
74881;BME280;63427;49.654;6.596;2022-12-24T09:45:25;99599.87;;;13.43;44.38
74881;BME280;63427;49.654;6.596;2022-12-24T09:47:50;99602.64;;;13.97;43.87
74881;BME280;63427;49.654;6.596;2022-12-24T09:50:25;99612.27;;;14.06;43.89
74881;BME280;63427;49.654;6.596;2022-12-24T09:52:40;99620.87;;;14.25;43.86
74881;BME280;63427;49.654;6.596;2022-12-24T09:55:09;99622.26;;;14.37;43.51
74881;BME280;63427;49.654;6.596;2022-12-24T09:57:34;99620.17;;;14.17;43.76
74881;BME280;63427;49.654;6.596;2022-12-24T09:59:54;99618.91;;;14.12;43.49
74881;BME280;63427;49.654;6.596;2022-12-24T10:02:20;99627.09;;;14.34;43.77
74881;BME280;63427;49.654;6.596;2022-12-24T10:04:46;99625.70;;;14.08;44.33
74881;BME280;63427;49.654;6.596;2022-12-24T10:07:20;99622.03;;;13.92;44.12
74881;BME280;63427;49.654;6.596;2022-12-24T10:09:41;99628.22;;;14.21;43.70
74881;BME280;63427;49.654;6.596;2022-12-24T10:12:06;99626.95;;;14.51;43.97
74881;BME280;63427;49.654;6.596;2022-12-24T10:14:37;99629.31;;;14.24;44.33
74881;BME280;63427;49.654;6.596;2022-12-24T10:16:57;99627.57;;;13.81;44.27
74881;BME280;63427;49.654;6.596;2022-12-24T10:19:24;99624.64;;;13.98;44.08
74881;BME280;63427;49.654;6.596;2022-12-24T10:21:52;99631.30;;;13.07;45.69
74881;BME280;63427;49.654;6.596;2022-12-24T10:24:13;99632.34;;;14.10;44.80
74881;BME280;63427;49.654;6.596;2022-12-24T10:26:37;99637.55;;;14.20;44.27
74881;BME280;63427;49.654;6.596;2022-12-24T10:29:02;99640.78;;;14.12;44.27
74881;BME280;63427;49.654;6.596;2022-12-24T10:31:26;99642.11;;;14.47;43.76
74881;BME280;63427;49.654;6.596;2022-12-24T10:33:54;99639.96;;;14.51;43.88
74881;BME280;63427;49.654;6.596;2022-12-24T10:36:17;99641.54;;;14.67;43.99
74881;BME280;63427;49.654;6.596;2022-12-24T10:38:41;99634.69;;;14.48;44.10
74881;BME280;63427;49.654;6.596;2022-12-24T10:41:07;99625.95;;;14.49;44.10
74881;BME280;63427;49.654;6.596;2022-12-24T10:43:32;99635.01;;;14.26;44.35
74881;BME280;63427;49.654;6.596;2022-12-24T10:46:00;99635.43;;;14.60;44.35
74881;BME280;63427;49.654;6.596;2022-12-24T10:48:26;99644.93;;;14.22;44.43
74881;BME280;63427;49.654;6.596;2022-12-24T10:50:54;99640.46;;;14.24;44.33
74881;BME280;63427;49.654;6.596;2022-12-24T10:53:18;99640.19;;;14.45;44.07
74881;BME280;63427;49.654;6.596;2022-12-24T10:55:39;99641.57;;;14.84;43.65
74881;BME280;63427;49.654;6.596;2022-12-24T10:58:10;99632.50;;;14.42;44.02
74881;BME280;63427;49.654;6.596;2022-12-24T11:00:30;99625.91;;;14.62;44.02
74881;BME280;63427;49.654;6.596;2022-12-24T11:03:06;99614.47;;;14.87;43.91
74881;BME280;63427;49.654;6.596;2022-12-24T11:05:29;99614.59;;;14.66;43.41
74881;BME280;63427;49.654;6.596;2022-12-24T11:07:53;99616.98;;;14.92;42.89
74881;BME280;63427;49.654;6.596;2022-12-24T11:10:22;99625.59;;;14.63;43.88
74881;BME280;63427;49.654;6.596;2022-12-24T11:12:39;99627.60;;;14.58;43.54
74881;BME280;63427;49.654;6.596;2022-12-24T11:15:03;99627.85;;;13.76;44.19
74881;BME280;63427;49.654;6.596;2022-12-24T11:17:27;99622.95;;;14.93;43.83
74881;BME280;63427;49.654;6.596;2022-12-24T11:19:52;99616.12;;;14.64;42.69
74881;BME280;63427;49.654;6.596;2022-12-24T11:22:22;99621.31;;;14.29;43.30
74881;BME280;63427;49.654;6.596;2022-12-24T11:24:43;99616.05;;;14.57;43.49
74881;BME280;63427;49.654;6.596;2022-12-24T11:27:22;99615.51;;;14.76;43.23
74881;BME280;63427;49.654;6.596;2022-12-24T11:29:33;99619.82;;;14.82;43.10
74881;BME280;63427;49.654;6.596;2022-12-24T11:32:09;99616.21;;;14.82;43.21
74881;BME280;63427;49.654;6.596;2022-12-24T11:34:26;99613.86;;;14.82;42.95
74881;BME280;63427;49.654;6.596;2022-12-24T11:36:49;99611.77;;;14.92;43.18
74881;BME280;63427;49.654;6.596;2022-12-24T11:39:18;99606.25;;;15.01;43.51
74881;BME280;63427;49.654;6.596;2022-12-24T11:41:40;99599.75;;;15.28;42.77
74881;BME280;63427;49.654;6.596;2022-12-24T11:44:06;99600.67;;;15.08;43.25
74881;BME280;63427;49.654;6.596;2022-12-24T11:46:37;99603.30;;;15.17;42.67
74881;BME280;63427;49.654;6.596;2022-12-24T11:49:05;99604.14;;;14.97;42.73
74881;BME280;63427;49.654;6.596;2022-12-24T11:51:24;99605.74;;;14.47;44.22
74881;BME280;63427;49.654;6.596;2022-12-24T11:53:49;99608.94;;;14.34;43.69
74881;BME280;63427;49.654;6.596;2022-12-24T11:56:20;99610.73;;;14.22;44.42
74881;BME280;63427;49.654;6.596;2022-12-24T11:58:42;99611.83;;;14.69;43.67
74881;BME280;63427;49.654;6.596;2022-12-24T12:01:11;99610.98;;;14.24;44.60
74881;BME280;63427;49.654;6.596;2022-12-24T12:03:32;99607.14;;;14.68;44.67
74881;BME280;63427;49.654;6.596;2022-12-24T12:05:55;99606.59;;;13.42;45.97
74881;BME280;63427;49.654;6.596;2022-12-24T12:08:20;99605.05;;;14.31;45.40
74881;BME280;63427;49.654;6.596;2022-12-24T12:10:46;99612.32;;;14.01;46.03
74881;BME280;63427;49.654;6.596;2022-12-24T12:13:12;99616.91;;;13.90;45.87
74881;BME280;63427;49.654;6.596;2022-12-24T12:15:39;99620.05;;;14.07;45.71
74881;BME280;63427;49.654;6.596;2022-12-24T12:18:07;99617.15;;;14.15;45.85
74881;BME280;63427;49.654;6.596;2022-12-24T12:20:30;99613.10;;;13.82;46.05
74881;BME280;63427;49.654;6.596;2022-12-24T12:22:56;99613.10;;;14.41;45.74
74881;BME280;63427;49.654;6.596;2022-12-24T12:25:20;99614.03;;;14.21;45.86
74881;BME280;63427;49.654;6.596;2022-12-24T12:27:43;99619.60;;;14.32;45.77
74881;BME280;63427;49.654;6.596;2022-12-24T12:30:13;99619.62;;;13.49;46.99
74881;BME280;63427;49.654;6.596;2022-12-24T12:32:41;99628.49;;;13.96;46.57
74881;BME280;63427;49.654;6.596;2022-12-24T12:35:03;99634.96;;;13.90;45.87
74881;BME280;63427;49.654;6.596;2022-12-24T12:37:27;99633.52;;;14.23;45.72
74881;BME280;63427;49.654;6.596;2022-12-24T12:39:48;99632.07;;;14.06;46.14
74881;BME280;63427;49.654;6.596;2022-12-24T12:42:21;99638.27;;;14.08;45.27
74881;BME280;63427;49.654;6.596;2022-12-24T12:44:48;99637.17;;;14.41;45.28
74881;BME280;63427;49.654;6.596;2022-12-24T12:47:18;99630.19;;;14.38;45.37
74881;BME280;63427;49.654;6.596;2022-12-24T12:49:38;99626.12;;;14.51;45.24
74881;BME280;63427;49.654;6.596;2022-12-24T12:52:00;99630.22;;;14.20;45.50